createdAt,value
2017-05-21T00:00:37.920Z,69.50
2017-05-21T00:03:06.743Z,69.10
2017-05-21T00:05:35.564Z,69.90
2017-05-21T00:08:04.396Z,68.90
2017-05-21T00:10:32.454Z,69.00
2017-05-21T00:13:01.300Z,66.70
2017-05-21T00:15:30.124Z,66.20
2017-05-21T00:17:58.963Z,66.40
2017-05-21T00:20:27.807Z,66.10
2017-05-21T00:22:56.673Z,67.30
2017-05-21T00:25:25.523Z,69.20
2017-05-21T00:27:54.371Z,67.20
2017-05-21T00:30:23.202Z,66.30
2017-05-21T00:32:52.029Z,66.00
2017-05-21T00:35:20.879Z,65.30
2017-05-21T00:37:49.700Z,68.90
2017-05-21T00:40:18.533Z,69.00
2017-05-21T00:42:47.382Z,68.60
2017-05-21T00:45:16.219Z,68.30
2017-05-21T00:47:45.052Z,67.70
2017-05-21T00:50:13.902Z,66.20
2017-05-21T00:52:42.752Z,65.70
2017-05-21T00:55:11.584Z,65.70
2017-05-21T00:57:40.420Z,67.20
2017-05-21T01:00:09.260Z,69.20
2017-05-21T01:02:38.106Z,68.60
2017-05-21T01:05:06.936Z,68.60
2017-05-21T01:07:35.779Z,70.10
2017-05-21T01:10:04.603Z,69.60
2017-05-21T01:12:33.458Z,69.50
2017-05-21T01:15:02.279Z,69.10
2017-05-21T01:17:31.111Z,70.50
2017-05-21T01:19:59.949Z,69.70
2017-05-21T01:22:28.771Z,68.90
2017-05-21T01:24:57.603Z,69.00
2017-05-21T01:27:26.442Z,68.80
2017-05-21T01:29:55.277Z,69.30
2017-05-21T01:32:24.108Z,71.60
2017-05-21T01:34:52.949Z,71.60
2017-05-21T01:37:21.794Z,70.90
2017-05-21T01:39:50.638Z,69.80
2017-05-21T01:42:19.476Z,69.10
2017-05-21T01:44:48.315Z,68.60
2017-05-21T01:47:17.170Z,68.30
2017-05-21T01:49:46.017Z,68.20
2017-05-21T01:52:14.835Z,70.50
2017-05-21T01:54:43.664Z,73.20
2017-05-21T01:57:12.503Z,73.60
2017-05-21T01:59:41.337Z,73.00
2017-05-21T02:02:10.172Z,72.60
2017-05-21T02:04:39.025Z,71.20
2017-05-21T02:07:07.849Z,72.10
2017-05-21T02:09:36.692Z,71.80
2017-05-21T02:12:05.520Z,70.70
2017-05-21T02:14:33.584Z,70.60
2017-05-21T02:17:02.414Z,68.80
2017-05-21T02:19:31.249Z,69.20
2017-05-21T02:22:00.074Z,69.10
2017-05-21T02:24:28.923Z,69.00
2017-05-21T02:26:57.767Z,68.90
2017-05-21T02:29:26.595Z,68.60
2017-05-21T02:31:55.450Z,69.70
2017-05-21T02:34:24.294Z,69.60
2017-05-21T02:36:53.123Z,70.50
2017-05-21T02:39:21.956Z,70.50
2017-05-21T02:41:50.783Z,71.10
2017-05-21T02:44:19.619Z,72.40
2017-05-21T02:46:48.447Z,72.10
2017-05-21T02:49:17.292Z,71.30
2017-05-21T02:51:45.350Z,71.30
2017-05-21T02:54:14.200Z,72.20
2017-05-21T02:56:43.020Z,71.00
2017-05-21T02:59:11.870Z,70.40
2017-05-21T03:01:40.716Z,70.00
2017-05-21T03:04:09.543Z,70.00
2017-05-21T03:06:38.387Z,69.60
2017-05-21T03:09:07.215Z,69.00
2017-05-21T03:11:36.046Z,69.20
2017-05-21T03:14:04.884Z,68.80
2017-05-21T03:16:33.743Z,68.70
2017-05-21T03:19:02.580Z,68.30
2017-05-21T03:21:31.425Z,68.50
2017-05-21T03:24:00.452Z,68.50
2017-05-21T03:26:29.545Z,68.00
2017-05-21T03:28:58.639Z,68.30
2017-05-21T03:31:27.737Z,70.40
2017-05-21T03:33:56.568Z,72.20
2017-05-21T03:36:25.513Z,73.00
2017-05-21T03:38:54.376Z,73.30
2017-05-21T03:41:23.199Z,73.90
2017-05-21T03:43:52.125Z,73.00
2017-05-21T03:46:20.972Z,71.70
2017-05-21T03:48:49.831Z,70.90
2017-05-21T03:51:18.671Z,70.30
2017-05-21T03:53:47.502Z,70.00
2017-05-21T03:56:16.354Z,69.80
2017-05-21T03:58:46.123Z,69.50
2017-05-21T04:01:14.214Z,69.50
2017-05-21T04:03:43.071Z,69.40
2017-05-21T04:06:11.910Z,69.50
2017-05-21T04:08:40.740Z,69.30
2017-05-21T04:11:09.569Z,69.40
2017-05-21T04:13:38.435Z,69.30
2017-05-21T04:16:07.267Z,69.20
2017-05-21T04:18:36.104Z,68.90
2017-05-21T04:21:04.928Z,68.90
2017-05-21T04:23:33.800Z,69.70
2017-05-21T04:26:02.645Z,70.60
2017-05-21T04:28:31.480Z,71.10
2017-05-21T04:31:00.354Z,73.80
2017-05-21T04:33:29.359Z,74.80
2017-05-21T04:35:58.237Z,75.40
2017-05-21T04:38:27.022Z,75.20
2017-05-21T04:40:55.880Z,75.30
2017-05-21T04:43:24.718Z,74.30
2017-05-21T04:45:53.588Z,73.20
2017-05-21T04:48:22.420Z,71.30
2017-05-21T04:50:51.278Z,70.30
2017-05-21T04:53:20.117Z,69.30
2017-05-21T04:55:48.946Z,69.60
2017-05-21T04:58:17.021Z,69.60
2017-05-21T05:00:45.869Z,65.60
2017-05-21T05:03:14.705Z,64.60
2017-05-21T05:05:43.536Z,62.50
2017-05-21T05:08:12.392Z,61.50
2017-05-21T05:10:40.472Z,61.50
2017-05-21T05:13:09.326Z,58.80
2017-05-21T05:15:38.183Z,58.20
2017-05-21T05:18:07.011Z,57.70
2017-05-21T05:20:35.850Z,57.60
2017-05-21T05:23:04.701Z,57.50
2017-05-21T05:25:32.776Z,57.50
2017-05-21T05:28:01.611Z,56.60
2017-05-21T05:30:30.450Z,57.30
2017-05-21T05:32:59.272Z,56.90
2017-05-21T05:35:28.119Z,55.80
2017-05-21T05:37:56.980Z,55.40
2017-05-21T05:40:25.803Z,55.30
2017-05-21T05:42:54.659Z,55.40
2017-05-21T05:45:23.486Z,54.90
2017-05-21T05:47:53.315Z,55.90
2017-05-21T05:50:22.158Z,55.40
2017-05-21T05:52:51.012Z,54.30
2017-05-21T05:55:19.858Z,53.90
2017-05-21T05:57:48.706Z,54.40
2017-05-21T06:00:17.582Z,54.90
2017-05-21T06:02:46.439Z,55.50
2017-05-21T06:05:15.269Z,53.70
2017-05-21T06:07:44.119Z,53.30
2017-05-21T06:10:12.970Z,52.60
2017-05-21T06:12:41.808Z,52.10
2017-05-21T06:15:10.676Z,51.20
2017-05-21T06:17:39.507Z,50.00
2017-05-21T06:20:08.347Z,49.70
2017-05-21T06:22:37.179Z,49.80
2017-05-21T06:25:06.032Z,50.10
2017-05-21T06:27:34.883Z,49.50
2017-05-21T06:30:03.720Z,49.20
2017-05-21T06:32:32.560Z,48.80
2017-05-21T06:35:01.396Z,49.30
2017-05-21T06:37:30.245Z,48.50
2017-05-21T06:39:59.081Z,48.50
2017-05-21T06:42:27.907Z,49.40
2017-05-21T06:44:56.748Z,52.60
2017-05-21T06:47:25.597Z,53.40
2017-05-21T06:49:54.442Z,53.50
2017-05-21T06:52:23.268Z,52.10
2017-05-21T06:54:52.120Z,49.50
2017-05-21T06:57:20.944Z,48.50
2017-05-21T06:59:49.810Z,48.50
2017-05-21T07:02:18.640Z,47.90
2017-05-21T07:04:47.476Z,46.90
2017-05-21T07:07:16.328Z,47.20
2017-05-21T07:09:45.162Z,45.90
2017-05-21T07:12:14.005Z,45.40
2017-05-21T07:14:42.868Z,45.20
2017-05-21T07:17:11.695Z,46.20
2017-05-21T07:19:40.543Z,46.40
2017-05-21T07:22:09.399Z,45.20
2017-05-21T07:24:38.244Z,44.90
2017-05-21T07:27:07.069Z,44.00
2017-05-21T07:29:35.927Z,44.00
2017-05-21T07:32:04.753Z,44.50
2017-05-21T07:34:33.586Z,43.30
2017-05-21T07:37:02.427Z,43.70
2017-05-21T07:39:31.257Z,44.80
2017-05-21T07:42:00.088Z,43.00
2017-05-21T07:44:28.951Z,42.80
2017-05-21T07:46:57.819Z,44.50
2017-05-21T07:49:26.639Z,41.20
2017-05-21T07:51:55.475Z,40.80
2017-05-21T07:54:24.332Z,40.10
2017-05-21T07:56:53.171Z,38.90
2017-05-21T07:59:22.045Z,38.50
2017-05-21T08:01:50.892Z,39.30
2017-05-21T08:04:19.717Z,40.30
2017-05-21T08:06:48.569Z,39.00
2017-05-21T08:09:17.420Z,38.10
2017-05-21T08:11:45.484Z,38.00
2017-05-21T08:14:14.320Z,35.30
2017-05-21T08:16:43.171Z,37.70
2017-05-21T08:19:12.008Z,36.30
2017-05-21T08:21:40.876Z,35.00
2017-05-21T08:24:09.726Z,35.90
2017-05-21T08:26:38.559Z,35.70
2017-05-21T08:29:07.409Z,36.30
2017-05-21T08:31:36.251Z,35.60
2017-05-21T08:34:05.192Z,32.50
2017-05-21T08:36:34.051Z,34.50
2017-05-21T08:39:02.875Z,33.90
2017-05-21T08:41:31.716Z,34.00
2017-05-21T08:44:00.572Z,33.60
2017-05-21T08:46:29.407Z,32.20
2017-05-21T08:48:58.268Z,33.10
2017-05-21T08:51:27.132Z,32.10
2017-05-21T08:53:55.959Z,32.10
2017-05-21T08:56:24.806Z,31.10
2017-05-21T08:58:53.656Z,31.90
2017-05-21T09:01:22.490Z,31.80
2017-05-21T09:03:51.348Z,32.50
2017-05-21T09:06:20.192Z,31.10
2017-05-21T09:08:49.051Z,31.50
2017-05-21T09:11:17.899Z,29.90
2017-05-21T09:13:46.841Z,30.60
2017-05-21T09:16:15.684Z,29.50
2017-05-21T09:18:44.516Z,27.70
2017-05-21T09:21:13.378Z,26.80
2017-05-21T09:23:42.210Z,27.70
2017-05-21T09:26:11.076Z,28.10
2017-05-21T09:28:39.903Z,27.20
2017-05-21T09:31:08.758Z,26.60
2017-05-21T09:33:37.579Z,27.30
2017-05-21T09:36:06.428Z,25.90
2017-05-21T09:38:35.283Z,25.30
2017-05-21T09:41:04.109Z,25.80
2017-05-21T09:43:32.949Z,25.80
2017-05-21T09:46:01.776Z,25.20
2017-05-21T09:48:30.647Z,26.00
2017-05-21T09:50:59.491Z,26.20
2017-05-21T09:53:28.477Z,26.10
2017-05-21T09:55:57.333Z,26.00
2017-05-21T09:58:26.174Z,26.30
2017-05-21T10:00:55.022Z,26.30
2017-05-21T10:03:23.899Z,26.90
2017-05-21T10:05:52.749Z,27.90
2017-05-21T10:08:21.611Z,27.50
2017-05-21T10:10:50.465Z,27.90
2017-05-21T10:13:19.316Z,27.30
2017-05-21T10:15:48.157Z,28.00
2017-05-21T10:18:16.997Z,26.60
2017-05-21T10:20:45.852Z,29.00
2017-05-21T10:23:14.685Z,29.50
2017-05-21T10:25:43.513Z,29.50
2017-05-21T10:28:12.345Z,29.30
2017-05-21T10:30:41.181Z,30.00
2017-05-21T10:33:10.034Z,29.80
2017-05-21T10:35:39.279Z,28.30
2017-05-21T10:38:08.161Z,25.90
2017-05-21T10:40:37.016Z,25.50
2017-05-21T10:43:05.868Z,26.30
2017-05-21T10:45:34.716Z,25.80
2017-05-21T10:48:03.553Z,26.90
2017-05-21T10:50:32.410Z,26.70
2017-05-21T10:53:01.270Z,25.80
2017-05-21T10:55:30.131Z,25.50
2017-05-21T10:57:58.970Z,25.40
2017-05-21T11:00:27.052Z,25.40
2017-05-21T11:02:55.897Z,25.50
2017-05-21T11:05:24.736Z,25.20
2017-05-21T11:07:53.588Z,26.70
2017-05-21T11:10:22.413Z,27.70
2017-05-21T11:12:51.279Z,28.70
2017-05-21T11:15:20.119Z,26.70
2017-05-21T11:17:48.971Z,26.20
2017-05-21T11:20:17.813Z,25.30
2017-05-21T11:22:46.636Z,24.20
2017-05-21T11:25:15.583Z,23.80
2017-05-21T11:27:44.440Z,23.10
2017-05-21T11:30:12.519Z,23.10
2017-05-21T11:32:41.700Z,24.80
2017-05-21T11:35:09.750Z,24.80
2017-05-21T11:37:38.579Z,24.40
2017-05-21T11:40:07.860Z,24.10
2017-05-21T11:42:36.760Z,25.10
2017-05-21T11:45:05.696Z,24.60
2017-05-21T11:47:34.532Z,23.80
2017-05-21T11:50:03.404Z,25.20
2017-05-21T11:52:32.243Z,24.90
2017-05-21T11:55:01.084Z,24.80
2017-05-21T11:57:29.929Z,24.70
2017-05-21T11:59:58.752Z,25.70
2017-05-21T12:02:26.825Z,25.80
2017-05-21T12:04:55.692Z,24.00
2017-05-21T12:07:24.536Z,23.50
2017-05-21T12:09:53.392Z,23.00
2017-05-21T12:12:22.220Z,23.60
2017-05-21T12:14:51.052Z,22.60
2017-05-21T12:17:19.908Z,22.80
2017-05-21T12:19:48.732Z,22.30
2017-05-21T12:22:17.599Z,23.30
2017-05-21T12:24:46.432Z,26.10
2017-05-21T12:27:15.270Z,27.20
2017-05-21T12:29:44.127Z,27.20
2017-05-21T12:32:12.978Z,27.20
2017-05-21T12:34:41.812Z,27.70
2017-05-21T12:37:10.655Z,27.40
2017-05-21T12:39:38.737Z,27.40
2017-05-21T12:42:07.594Z,25.40
2017-05-21T12:44:36.419Z,25.50
2017-05-21T12:47:05.271Z,25.60
2017-05-21T12:49:34.116Z,27.30
2017-05-21T12:52:02.958Z,27.10
2017-05-21T12:54:31.783Z,25.40
2017-05-21T12:57:00.643Z,24.60
2017-05-21T12:59:29.467Z,24.40
2017-05-21T13:01:58.293Z,24.10
2017-05-21T13:04:27.132Z,23.60
2017-05-21T13:06:55.980Z,22.80
2017-05-21T13:09:24.832Z,23.30
2017-05-21T13:11:53.747Z,24.40
2017-05-21T13:14:22.608Z,23.80
2017-05-21T13:16:51.452Z,24.90
2017-05-21T13:19:20.283Z,25.20
2017-05-21T13:21:49.134Z,25.50
2017-05-21T13:24:17.956Z,26.20
2017-05-21T13:26:46.796Z,27.70
2017-05-21T13:29:15.655Z,28.10
2017-05-21T13:31:44.492Z,28.00
2017-05-21T13:34:13.343Z,28.60
2017-05-21T13:36:42.177Z,28.10
2017-05-21T13:39:11.024Z,27.90
2017-05-21T13:41:39.874Z,28.10
2017-05-21T13:44:08.715Z,27.40
2017-05-21T13:46:37.555Z,27.20
2017-05-21T13:49:06.400Z,27.30
2017-05-21T13:51:35.241Z,27.90
2017-05-21T13:54:04.082Z,27.30
2017-05-21T13:56:32.924Z,27.50
2017-05-21T13:59:01.762Z,28.00
2017-05-21T14:01:30.596Z,28.10
2017-05-21T14:03:59.428Z,28.30
2017-05-21T14:06:28.281Z,28.60
2017-05-21T14:08:57.108Z,27.50
2017-05-21T14:11:25.966Z,27.90
2017-05-21T14:13:54.795Z,26.50
2017-05-21T14:16:23.628Z,26.90
2017-05-21T14:18:52.495Z,27.20
2017-05-21T14:21:21.308Z,27.20
2017-05-21T14:23:50.178Z,26.30
2017-05-21T14:26:19.030Z,27.50
2017-05-21T14:28:47.875Z,28.30
2017-05-21T14:31:16.710Z,28.00
2017-05-21T14:33:45.630Z,28.40
2017-05-21T14:36:14.490Z,28.70
2017-05-21T14:38:43.320Z,28.80
2017-05-21T14:41:12.177Z,28.80
2017-05-21T14:43:41.008Z,28.80
2017-05-21T14:46:09.865Z,29.00
2017-05-21T14:48:38.737Z,28.90
2017-05-21T14:51:07.578Z,29.50
2017-05-21T14:53:36.417Z,29.00
2017-05-21T14:56:05.254Z,29.60
2017-05-21T14:58:34.103Z,29.30
2017-05-21T15:01:02.944Z,29.80
2017-05-21T15:03:31.787Z,29.20
2017-05-21T15:06:00.620Z,29.50
2017-05-21T15:08:29.478Z,29.50
2017-05-21T15:10:58.344Z,29.60
2017-05-21T15:13:27.251Z,28.80
2017-05-21T15:15:56.101Z,29.10
2017-05-21T15:18:24.943Z,30.00
2017-05-21T15:20:53.786Z,29.40
2017-05-21T15:23:22.612Z,29.60
2017-05-21T15:25:51.468Z,30.20
2017-05-21T15:28:20.299Z,29.80
2017-05-21T15:30:49.144Z,29.80
2017-05-21T15:33:17.981Z,29.60
2017-05-21T15:35:46.062Z,29.60
2017-05-21T15:38:14.888Z,29.60
2017-05-21T15:40:43.746Z,29.70
2017-05-21T15:43:12.567Z,29.70
2017-05-21T15:45:41.400Z,31.50
2017-05-21T15:48:10.257Z,30.00
2017-05-21T15:50:39.114Z,30.40
2017-05-21T15:53:07.962Z,30.80
2017-05-21T15:55:36.810Z,30.90
2017-05-21T15:58:05.660Z,30.60
2017-05-21T16:00:34.511Z,30.70
2017-05-21T16:03:03.349Z,30.90
2017-05-21T16:05:32.208Z,31.80
2017-05-21T16:08:01.065Z,31.30
2017-05-21T16:10:29.948Z,31.60
2017-05-21T16:12:58.020Z,31.60
2017-05-21T16:15:26.875Z,31.60
2017-05-21T16:17:55.716Z,30.20
2017-05-21T16:20:24.556Z,30.80
2017-05-21T16:22:53.402Z,30.40
2017-05-21T16:25:22.256Z,30.70
2017-05-21T16:27:51.102Z,31.00
2017-05-21T16:30:19.950Z,31.10
2017-05-21T16:32:48.775Z,32.40
2017-05-21T16:35:17.622Z,33.00
2017-05-21T16:37:46.460Z,33.10
2017-05-21T16:40:15.301Z,33.80
2017-05-21T16:42:44.205Z,33.60
2017-05-21T16:45:13.032Z,34.00
2017-05-21T16:47:41.864Z,34.10
2017-05-21T16:50:10.736Z,34.40
2017-05-21T16:52:39.569Z,34.60
2017-05-21T16:55:08.631Z,34.50
2017-05-21T16:57:37.527Z,34.70
2017-05-21T17:00:06.389Z,33.50
2017-05-21T17:02:35.236Z,34.60
2017-05-21T17:05:04.067Z,34.90
2017-05-21T17:07:32.904Z,34.90
2017-05-21T17:10:01.742Z,35.20
2017-05-21T17:12:30.589Z,34.40
2017-05-21T17:14:59.417Z,35.00
2017-05-21T17:17:28.283Z,35.60
2017-05-21T17:19:57.127Z,35.90
2017-05-21T17:22:25.983Z,35.50
2017-05-21T17:24:54.823Z,35.30
2017-05-21T17:27:23.658Z,35.80
2017-05-21T17:29:52.503Z,35.70
2017-05-21T17:32:21.350Z,35.80
2017-05-21T17:34:50.192Z,36.40
2017-05-21T17:37:19.091Z,36.40
2017-05-21T17:39:47.931Z,36.80
2017-05-21T17:42:16.808Z,36.70
2017-05-21T17:44:45.632Z,37.20
2017-05-21T17:47:14.506Z,37.40
2017-05-21T17:49:43.357Z,37.70
2017-05-21T17:52:12.234Z,37.80
2017-05-21T17:54:41.090Z,38.30
2017-05-21T17:57:09.933Z,38.40
2017-05-21T17:59:38.787Z,38.60
2017-05-21T18:02:07.643Z,38.80
2017-05-21T18:04:36.476Z,38.20
2017-05-21T18:07:05.339Z,38.20
2017-05-21T18:09:34.208Z,38.50
2017-05-21T18:12:03.063Z,38.70
2017-05-21T18:14:31.897Z,38.50
2017-05-21T18:17:00.724Z,38.80
2017-05-21T18:19:29.603Z,39.10
2017-05-21T18:21:58.442Z,39.50
2017-05-21T18:24:27.292Z,39.80
2017-05-21T18:26:56.156Z,40.20
2017-05-21T18:29:24.983Z,40.60
2017-05-21T18:31:53.817Z,41.00
2017-05-21T18:34:21.879Z,41.00
2017-05-21T18:36:49.984Z,41.20
2017-05-21T18:39:18.830Z,41.90
2017-05-21T18:41:47.655Z,42.20
2017-05-21T18:44:16.550Z,42.50
2017-05-21T18:46:45.397Z,43.00
2017-05-21T18:49:14.248Z,43.60
2017-05-21T18:51:43.100Z,43.70
2017-05-21T18:54:11.375Z,43.80
2017-05-21T18:56:40.209Z,44.00
2017-05-21T18:59:09.040Z,44.00
2017-05-21T19:01:37.884Z,45.00
2017-05-21T19:04:06.726Z,44.90
2017-05-21T19:06:35.575Z,45.10
2017-05-21T19:09:04.422Z,45.30
2017-05-21T19:11:32.477Z,45.90
2017-05-21T19:14:01.345Z,45.70
2017-05-21T19:16:30.167Z,46.20
2017-05-21T19:18:59.031Z,46.30
2017-05-21T19:21:27.884Z,46.40
2017-05-21T19:23:56.710Z,47.20
2017-05-21T19:26:25.551Z,48.00
2017-05-21T19:28:54.407Z,47.80
2017-05-21T19:31:23.246Z,48.10
2017-05-21T19:33:52.294Z,47.10
2017-05-21T19:36:21.153Z,48.40
2017-05-21T19:38:49.989Z,49.00
2017-05-21T19:41:18.835Z,48.00
2017-05-21T19:43:47.667Z,48.30
2017-05-21T19:46:16.514Z,49.90
2017-05-21T19:48:45.346Z,48.40
2017-05-21T19:51:14.207Z,50.20
2017-05-21T19:53:43.123Z,49.40
2017-05-21T19:56:11.968Z,51.20
2017-05-21T19:58:40.803Z,51.40
2017-05-21T20:01:09.671Z,51.60
2017-05-21T20:03:38.506Z,52.20
2017-05-21T20:06:07.366Z,51.70
2017-05-21T20:08:36.493Z,52.00
2017-05-21T20:11:05.327Z,52.20
2017-05-21T20:13:34.174Z,52.40
2017-05-21T20:16:03.005Z,53.30
2017-05-21T20:18:31.863Z,53.00
2017-05-21T20:20:59.920Z,53.00
2017-05-21T20:23:28.766Z,54.00
2017-05-21T20:25:57.596Z,53.50
2017-05-21T20:28:26.436Z,53.60
2017-05-21T20:30:55.287Z,53.30
2017-05-21T20:33:23.359Z,53.30
2017-05-21T20:35:52.203Z,53.80
2017-05-21T20:38:21.032Z,54.20
2017-05-21T20:40:49.898Z,54.80
2017-05-21T20:43:18.749Z,55.30
2017-05-21T20:45:47.571Z,55.10
2017-05-21T20:48:16.429Z,55.30
2017-05-21T20:50:45.277Z,55.40
2017-05-21T20:53:14.213Z,55.40
2017-05-21T20:55:42.280Z,55.30
2017-05-21T20:58:11.119Z,55.30
2017-05-21T21:00:39.963Z,55.50
2017-05-21T21:03:08.799Z,55.40
2017-05-21T21:05:37.646Z,55.60
2017-05-21T21:08:06.466Z,55.50
2017-05-21T21:10:35.303Z,55.80
2017-05-21T21:13:04.152Z,55.90
2017-05-21T21:15:33.013Z,56.30
2017-05-21T21:18:01.858Z,56.10
2017-05-21T21:20:29.919Z,56.10
2017-05-21T21:22:58.764Z,56.30
2017-05-21T21:25:27.592Z,56.20
2017-05-21T21:27:56.439Z,56.00
2017-05-21T21:30:25.281Z,56.40
2017-05-21T21:32:54.136Z,56.80
2017-05-21T21:35:22.968Z,56.80
2017-05-21T21:37:51.810Z,56.60
2017-05-21T21:40:20.662Z,56.20
2017-05-21T21:42:49.488Z,56.20
2017-05-21T21:45:18.315Z,56.60
2017-05-21T21:47:47.179Z,56.90
2017-05-21T21:50:15.263Z,56.90
2017-05-21T21:52:44.087Z,57.00
2017-05-21T21:55:12.915Z,56.70
2017-05-21T21:57:41.743Z,57.20
2017-05-21T22:00:10.588Z,58.50
2017-05-21T22:02:39.437Z,58.20
2017-05-21T22:05:08.278Z,58.10
2017-05-21T22:07:37.130Z,58.20
2017-05-21T22:10:05.984Z,58.50
2017-05-21T22:12:34.800Z,58.80
2017-05-21T22:15:03.637Z,59.20
2017-05-21T22:17:32.484Z,60.30
2017-05-21T22:20:01.334Z,60.20
2017-05-21T22:22:30.160Z,60.00
2017-05-21T22:24:59.036Z,59.60
2017-05-21T22:27:27.853Z,59.30
2017-05-21T22:29:56.678Z,59.40
2017-05-21T22:32:25.541Z,59.30
2017-05-21T22:34:54.387Z,59.10
2017-05-21T22:37:23.236Z,59.30
2017-05-21T22:39:52.075Z,59.30
2017-05-21T22:42:20.946Z,59.20
2017-05-21T22:44:49.780Z,59.10
2017-05-21T22:47:18.630Z,59.20
2017-05-21T22:49:46.695Z,59.20
2017-05-21T22:52:15.531Z,58.10
2017-05-21T22:54:43.599Z,58.00
2017-05-21T22:57:12.443Z,57.60
2017-05-21T22:59:41.306Z,57.60
2017-05-21T23:02:10.131Z,58.30
2017-05-21T23:04:38.982Z,58.60
2017-05-21T23:07:07.834Z,58.80
2017-05-21T23:09:36.664Z,59.10
2017-05-21T23:12:05.499Z,59.40
2017-05-21T23:14:33.584Z,60.00
2017-05-21T23:17:02.450Z,59.40
2017-05-21T23:19:31.300Z,59.90
2017-05-21T23:22:00.123Z,60.20
2017-05-21T23:24:28.973Z,60.70
2017-05-21T23:26:57.818Z,60.50
2017-05-21T23:29:26.647Z,60.70
2017-05-21T23:31:55.483Z,60.90
2017-05-21T23:34:24.430Z,61.10
2017-05-21T23:36:53.251Z,61.00
2017-05-21T23:39:22.099Z,61.00
2017-05-21T23:41:50.935Z,61.40
2017-05-21T23:44:19.767Z,62.70
2017-05-21T23:46:48.696Z,62.00
2017-05-21T23:49:18.679Z,61.70
2017-05-21T23:51:47.515Z,60.20
2017-05-21T23:54:16.365Z,60.00
2017-05-21T23:56:45.190Z,59.80
2017-05-21T23:59:14.028Z,59.70
